Time;durP1;ratioP1;P1;durP2;ratioP2;P2;SDS_P1;SDS_P2;PMS_P1;PMS_P2;Temp;Humidity;BMP_temperature;BMP_pressure;BME280_temperature;BME280_humidity;BME280_pressure;Samples;Min_cycle;Max_cycle;Signal;HPM_P1;HPM_P2
2022/04/17 00:00:42;;;;;;;16.57;9.23;;;;;;;2.70;57.44;101869.06;3479073;78;21002;-81
2022/04/17 00:05:35;;;;;;;12.90;7.62;;;;;;;2.61;57.63;101871.53;3477149;78;21169;-81
2022/04/17 00:10:26;;;;;;;19.30;9.33;;;;;;;2.56;57.75;101869.05;3508853;79;20939;-81
2022/04/17 00:15:17;;;;;;;11.83;7.45;;;;;;;2.43;57.95;101871.17;3464697;79;20955;-81
2022/04/17 00:20:13;;;;;;;12.68;6.67;;;;;;;2.37;58.18;101873.30;3480237;79;21461;-81
2022/04/17 00:25:07;;;;;;;10.82;6.10;;;;;;;2.36;58.29;101864.20;3522750;78;20971;-81
2022/04/17 00:29:58;;;;;;;10.60;5.85;;;;;;;2.28;58.45;101863.29;3475473;78;21500;-81
2022/04/17 00:34:49;;;;;;;9.23;6.55;;;;;;;2.22;58.48;101860.72;3475686;79;21101;-81
2022/04/17 00:39:40;;;;;;;11.12;5.60;;;;;;;2.18;59.18;101862.55;3537496;79;20983;-81
2022/04/17 00:44:32;;;;;;;7.70;4.90;;;;;;;2.18;59.18;101862.55;3459597;79;21432;-81
2022/04/17 00:49:24;;;;;;;6.78;4.62;;;;;;;2.12;58.86;101864.30;3485194;79;20987;-81
2022/04/17 00:54:16;;;;;;;6.12;5.10;;;;;;;1.99;59.03;101862.97;3512664;79;21198;-81
2022/04/17 00:59:09;;;;;;;10.63;5.80;;;;;;;1.93;59.41;101859.95;3500503;79;20963;-81
2022/04/17 01:04:01;;;;;;;7.33;4.65;;;;;;;1.85;59.49;101853.89;3506959;79;20952;-82
2022/04/17 01:08:54;;;;;;;7.60;4.85;;;;;;;1.78;59.80;101854.65;3544369;78;20916;-81
2022/04/17 01:13:48;;;;;;;7.90;4.70;;;;;;;1.67;59.91;101845.80;3450783;78;20983;-81
2022/04/17 01:19:11;;;;;;;8.65;4.80;;;;;;;1.58;60.09;101849.39;3486080;79;21520;-81
2022/04/17 01:29:04;;;;;;;8.60;5.20;;;;;;;1.47;60.62;101836.69;3513762;79;20963;-82
2022/04/17 01:33:55;;;;;;;7.93;4.37;;;;;;;1.44;60.85;101833.91;3489469;78;20991;-82
2022/04/17 01:38:46;;;;;;;5.37;4.12;;;;;;;1.40;61.00;101830.63;3449148;79;21210;-81
2022/04/17 01:43:37;;;;;;;11.95;5.85;;;;;;;1.37;61.14;101830.40;3515176;79;21019;-81
2022/04/17 01:48:28;;;;;;;7.70;4.90;;;;;;;1.36;61.16;101825.16;3533942;78;21529;-81
2022/04/17 01:53:20;;;;;;;6.33;4.87;;;;;;;1.36;61.35;101826.08;3478439;79;20956;-81
2022/04/17 01:58:11;;;;;;;7.95;5.37;;;;;;;1.32;61.47;101824.05;3512042;78;20941;-81
2022/04/17 02:03:02;;;;;;;6.55;4.65;;;;;;;1.24;61.55;101816.22;3509665;79;21019;-81
2022/04/17 02:07:53;;;;;;;8.13;4.40;;;;;;;1.16;61.71;101810.52;3489840;79;20975;-82
2022/04/17 02:12:44;;;;;;;7.87;4.95;;;;;;;1.06;61.30;101810.25;3505319;79;21528;-82
2022/04/17 02:17:36;;;;;;;7.50;4.73;;;;;;;0.95;61.68;101811.16;3533741;78;20958;-81
2022/04/17 02:22:27;;;;;;;9.78;5.50;;;;;;;0.86;62.13;101814.29;3500188;78;20956;-81
2022/04/17 02:27:19;;;;;;;5.97;5.08;;;;;;;0.82;62.04;101813.57;3469067;78;20903;-81
2022/04/17 02:32:11;;;;;;;8.78;4.45;;;;;;;0.75;62.18;101814.78;3544569;78;21165;-81
2022/04/17 02:37:02;;;;;;;7.20;4.50;;;;;;;0.63;62.10;101803.26;3559238;79;21042;-81
2022/04/17 02:41:53;;;;;;;7.05;5.12;;;;;;;0.57;62.52;101806.63;3479267;79;20980;-81
2022/04/17 02:51:53;;;;;;;5.28;4.03;;;;;;;0.47;62.71;101806.73;3534444;79;20979;-81
2022/04/17 02:56:45;;;;;;;6.87;4.28;;;;;;;0.35;62.85;101808.85;3524389;78;20928;-81
2022/04/17 03:06:46;;;;;;;7.15;4.45;;;;;;;0.28;63.39;101806.61;3482349;78;21434;-80
2022/04/17 03:11:37;;;;;;;6.40;5.00;;;;;;;0.26;63.10;101804.72;3515695;79;21101;-80
2022/04/17 03:16:28;;;;;;;6.72;4.42;;;;;;;0.21;63.31;101804.75;3543625;78;20925;-80
2022/04/17 03:21:20;;;;;;;5.28;4.53;;;;;;;0.15;63.39;101805.19;3494723;78;22190;-80
2022/04/17 03:26:11;;;;;;;7.12;4.05;;;;;;;0.11;63.55;101810.85;3457506;77;20964;-80
2022/04/17 03:31:04;;;;;;;5.95;4.37;;;;;;;0.09;63.63;101814.56;3534133;78;21454;-81
2022/04/17 03:35:56;;;;;;;7.95;4.05;;;;;;;0.11;63.96;101819.41;3533654;79;20951;-80
2022/04/17 03:40:47;;;;;;;7.08;4.20;;;;;;;0.13;63.92;101810.58;3498293;79;21057;-80
2022/04/17 03:45:38;;;;;;;9.40;4.67;;;;;;;0.12;63.86;101812.61;3522364;78;22645;-81
2022/04/17 03:50:30;;;;;;;6.65;4.47;;;;;;;0.09;64.04;101807.25;3476719;78;21437;-81
2022/04/17 03:55:22;;;;;;;10.58;6.60;;;;;;;0.07;64.08;101808.81;3515188;79;20991;-81
2022/04/17 04:00:14;;;;;;;10.30;6.47;;;;;;;0.09;64.32;101809.45;3446259;78;21541;-81
2022/04/17 04:05:08;;;;;;;7.40;5.53;;;;;;;0.13;64.51;101809.30;3454975;79;20964;-81
2022/04/17 04:09:59;;;;;;;8.10;6.28;;;;;;;0.20;64.24;101811.55;3480015;78;21152;-81
2022/04/17 04:14:50;;;;;;;10.35;5.97;;;;;;;0.47;64.13;101806.73;3503125;78;20982;-80
2022/04/17 04:19:41;;;;;;;11.93;6.83;;;;;;;0.82;63.63;101807.17;3548554;79;21809;-80
2022/04/17 04:24:33;;;;;;;9.93;6.17;;;;;;;1.10;63.69;101803.28;3508161;79;20955;-80
2022/04/17 04:29:23;;;;;;;7.35;5.15;;;;;;;1.02;63.63;101808.26;3467538;79;20932;-81
2022/04/17 04:34:14;;;;;;;6.70;5.05;;;;;;;0.98;63.66;101808.79;3514518;79;20911;-80
2022/04/17 04:39:05;;;;;;;7.28;5.10;;;;;;;0.89;63.77;101806.84;3450837;79;21325;-80
2022/04/17 04:43:58;;;;;;;7.45;4.65;;;;;;;0.88;63.81;101812.77;3480976;79;21599;-81
2022/04/17 04:53:59;;;;;;;7.37;4.65;;;;;;;0.97;64.18;101817.27;3450352;80;21333;-78
2022/04/17 04:58:50;;;;;;;6.45;4.17;;;;;;;1.07;64.19;101819.73;3517980;80;21232;-78
2022/04/17 05:03:41;;;;;;;6.78;5.00;;;;;;;1.21;64.20;101817.27;3496782;79;21015;-78
2022/04/17 05:08:32;;;;;;;9.03;5.53;;;;;;;1.32;64.08;101814.72;3463898;78;21497;-78
2022/04/17 05:13:23;;;;;;;6.73;5.03;;;;;;;1.44;64.31;101815.96;3514254;79;21717;-78
2022/04/17 05:18:14;;;;;;;8.65;4.87;;;;;;;1.55;64.36;101815.84;3496562;79;21701;-78
2022/04/17 05:23:26;;;;;;;6.78;4.50;;;;;;;1.65;64.39;101815.31;3530569;77;21188;-79
2022/04/17 05:28:18;;;;;;;7.15;5.15;;;;;;;1.79;64.44;101812.45;3470243;79;20953;-79
2022/04/17 05:33:10;;;;;;;18.73;17.27;;;;;;;1.97;64.40;101804.23;3534654;79;20974;-79
2022/04/17 05:38:01;;;;;;;7.03;5.53;;;;;;;2.18;64.35;101809.58;3519827;79;20967;-79
2022/04/17 05:42:53;;;;;;;9.40;7.12;;;;;;;2.38;64.14;101811.30;3451688;79;20947;-79
2022/04/17 05:47:44;;;;;;;9.03;7.03;;;;;;;2.53;63.94;101807.61;3502812;79;21099;-80
2022/04/17 05:52:35;;;;;;;8.98;4.85;;;;;;;2.57;63.85;101807.89;3505819;79;21457;-79
2022/04/17 05:57:26;;;;;;;6.83;5.25;;;;;;;2.60;63.73;101814.94;3531191;79;21062;-80
2022/04/17 06:02:18;;;;;;;7.12;5.60;;;;;;;2.73;63.75;101814.06;3496456;78;20964;-79
2022/04/17 06:07:09;;;;;;;6.15;5.40;;;;;;;3.00;63.72;101821.00;3531504;79;20947;-79
2022/04/17 06:12:00;;;;;;;6.87;6.00;;;;;;;3.27;63.28;101820.13;3466260;79;21763;-78
2022/04/17 06:16:52;;;;;;;8.45;6.17;;;;;;;3.76;62.64;101822.83;3474125;79;21225;-79
2022/04/17 06:21:43;;;;;;;9.55;5.60;;;;;;;4.57;61.89;101812.69;3475661;79;20948;-80
2022/04/17 06:26:35;;;;;;;7.45;5.60;;;;;;;5.11;61.20;101814.91;3493130;79;20924;-80
2022/04/17 06:31:26;;;;;;;16.17;14.78;;;;;;;5.34;60.49;101814.50;3467528;79;20987;-80
2022/04/17 06:36:16;;;;;;;8.88;7.00;;;;;;;6.21;59.03;101802.41;3485843;78;20967;-80
2022/04/17 06:41:08;;;;;;;8.15;6.65;;;;;;;6.21;59.03;101802.41;3503265;77;21441;-80
2022/04/17 06:45:59;;;;;;;7.80;5.90;;;;;;;8.19;56.89;101794.16;3476405;78;20988;-80
2022/04/17 06:50:52;;;;;;;8.78;5.25;;;;;;;8.67;56.36;101802.31;3499703;79;20947;-80
2022/04/17 06:55:44;;;;;;;7.35;5.47;;;;;;;8.67;56.36;101802.31;3492258;80;21406;-80
2022/04/17 07:00:37;;;;;;;10.55;6.30;;;;;;;9.33;55.33;101809.31;3516706;78;21014;-80
2022/04/17 07:05:28;;;;;;;8.28;5.75;;;;;;;10.53;52.36;101805.97;3504017;79;21613;-80
2022/04/17 07:10:19;;;;;;;19.73;18.02;;;;;;;10.88;52.01;101797.18;3449988;79;20971;-80
2022/04/17 07:15:10;;;;;;;22.42;20.05;;;;;;;12.80;49.60;101794.48;3530141;79;20942;-80
2022/04/17 07:20:06;;;;;;;5.85;4.95;;;;;;;13.01;48.90;101795.44;3500866;79;21470;-81
2022/04/17 07:25:01;;;;;;;5.97;4.73;;;;;;;15.45;47.39;101788.79;3481842;78;22435;-81
2022/04/17 07:29:52;;;;;;;5.95;5.20;;;;;;;19.33;42.49;101785.91;3403132;80;20955;-81
2022/04/17 07:34:43;;;;;;;6.87;4.95;;;;;;;20.53;39.50;101789.35;3427006;82;21011;-81
2022/04/17 07:39:34;;;;;;;6.33;5.72;;;;;;;20.27;40.01;101780.73;3480013;79;21540;-80
2022/04/17 07:44:29;;;;;;;5.47;4.97;;;;;;;21.73;38.03;101775.87;3484133;79;21038;-81
2022/04/17 07:49:19;;;;;;;6.20;5.05;;;;;;;22.08;37.25;101772.30;3467190;79;21472;-79
2022/04/17 07:54:10;;;;;;;5.00;4.45;;;;;;;23.85;34.58;101771.02;3496359;78;21061;-80
2022/04/17 07:59:01;;;;;;;7.28;4.45;;;;;;;23.87;33.48;101769.20;3504402;79;20907;-81
2022/04/17 08:03:52;;;;;;;4.62;3.80;;;;;;;23.45;32.91;101765.19;3534398;78;21766;-80
2022/04/17 08:08:44;;;;;;;6.90;5.20;;;;;;;24.99;31.59;101756.34;3507679;78;21540;-79
2022/04/17 08:13:36;;;;;;;4.45;4.12;;;;;;;25.53;30.27;101752.67;3467669;78;21513;-78
2022/04/17 08:18:27;;;;;;;4.85;4.20;;;;;;;23.55;30.44;101753.45;3474023;79;20994;-79
2022/04/17 08:23:18;;;;;;;5.33;4.83;;;;;;;23.12;30.63;101754.31;3431957;79;21480;-79
2022/04/17 08:28:10;;;;;;;3.65;3.35;;;;;;;23.48;30.33;101751.84;3526545;79;21841;-79
2022/04/17 08:33:07;;;;;;;3.70;3.27;;;;;;;23.85;29.73;101752.42;3486716;79;20947;-79
2022/04/17 08:38:00;;;;;;;3.62;3.12;;;;;;;24.08;29.95;101751.05;3455534;79;21501;-78
2022/04/17 08:42:53;;;;;;;3.65;3.35;;;;;;;24.02;29.11;101740.55;3450557;79;34895;-79
2022/04/17 08:47:44;;;;;;;3.17;2.87;;;;;;;21.98;29.88;101748.20;3514578;79;20956;-79
2022/04/17 08:52:38;;;;;;;4.08;3.47;;;;;;;21.29;30.00;101744.61;3473864;79;22072;-79
2022/04/17 08:57:30;;;;;;;2.87;2.62;;;;;;;21.10;29.45;101735.13;3447671;78;21019;-79
2022/04/17 09:02:21;;;;;;;4.03;2.95;;;;;;;19.93;29.69;101726.36;3510218;78;21125;-79
2022/04/17 09:07:14;;;;;;;4.65;3.10;;;;;;;20.06;30.13;101721.87;3491333;79;21461;-79
2022/04/17 09:12:06;;;;;;;3.27;2.80;;;;;;;18.17;30.72;101718.32;3473181;78;21046;-79
2022/04/17 09:16:57;;;;;;;2.40;2.20;;;;;;;21.25;29.37;101702.36;3486288;79;20900;-79
2022/04/17 09:21:56;;;;;;;3.05;2.80;;;;;;;22.92;27.36;101683.06;3487696;80;20970;-79
2022/04/17 09:26:55;;;;;;;3.20;2.33;;;;;;;22.73;26.93;101687.86;3487390;79;21517;-77
2022/04/17 09:31:47;;;;;;;3.25;2.02;;;;;;;20.64;27.85;101698.56;3506363;79;20943;-79
2022/04/17 09:36:39;;;;;;;3.10;2.60;;;;;;;19.48;28.07;101695.80;3474742;79;21033;-78
2022/04/17 09:41:31;;;;;;;5.42;2.22;;;;;;;18.95;27.74;101673.99;3532776;78;20923;-77
2022/04/17 09:46:22;;;;;;;2.87;2.42;;;;;;;19.00;28.28;101675.73;3505823;79;20987;-78
2022/04/17 09:51:30;;;;;;;2.27;2.10;;;;;;;16.93;29.06;101678.83;3489112;79;21616;-79
2022/04/17 09:56:35;;;;;;;3.27;2.55;;;;;;;15.18;29.90;101670.09;3477650;79;20987;-83
2022/04/17 10:01:28;;;;;;;2.42;2.22;;;;;;;19.21;28.48;101655.47;3508934;78;20948;-82
2022/04/17 10:06:20;;;;;;;2.00;1.80;;;;;;;22.07;26.03;101643.45;3509804;79;21026;-82
2022/04/17 10:11:14;;;;;;;2.65;2.45;;;;;;;24.57;22.92;101626.26;3498719;79;21489;-82
2022/04/17 10:16:09;;;;;;;2.40;2.20;;;;;;;26.03;22.79;101615.73;3504665;78;21766;-81
2022/04/17 10:21:00;;;;;;;2.47;2.27;;;;;;;27.63;22.62;101615.22;3468158;78;20928;-79
2022/04/17 10:25:55;;;;;;;2.42;2.22;;;;;;;24.32;22.97;101619.36;3471285;79;21113;-80
2022/04/17 10:31:17;;;;;;;2.00;1.90;;;;;;;22.42;23.09;101609.34;3487116;79;21140;-79
2022/04/17 10:36:40;;;;;;;2.45;2.25;;;;;;;21.98;23.79;101597.27;3502796;78;21430;-83
2022/04/17 10:41:31;;;;;;;2.70;2.50;;;;;;;24.90;22.61;101581.04;3544824;78;21091;-81
2022/04/17 10:46:23;;;;;;;2.83;2.45;;;;;;;25.81;21.85;101576.45;3480255;79;21984;-79
2022/04/17 10:51:19;;;;;;;2.17;2.00;;;;;;;26.34;21.13;101564.89;3475231;79;21630;-79
2022/04/17 10:56:15;;;;;;;2.55;2.12;;;;;;;25.46;21.79;101565.61;3523886;79;21489;-80
2022/04/17 11:01:06;;;;;;;5.20;2.35;;;;;;;22.52;23.30;101565.88;3515288;79;20920;-78
2022/04/17 11:11:03;;;;;;;3.00;2.22;;;;;;;22.19;23.85;101551.45;3533069;78;21006;-79
2022/04/17 11:15:59;;;;;;;2.22;2.02;;;;;;;24.19;22.59;101533.80;3489302;79;20940;-79
2022/04/17 11:20:56;;;;;;;2.87;2.50;;;;;;;24.18;22.08;101524.06;3504188;79;21063;-78
2022/04/17 11:25:50;;;;;;;2.60;2.40;;;;;;;23.82;21.71;101513.50;3492404;79;20976;-80
2022/04/17 11:30:46;;;;;;;;;;;;;;;23.86;20.90;101499.69;3489312;79;21007;-78
2022/04/17 11:35:40;;;;;;;1.85;1.75;;;;;;;23.49;21.51;101499.28;3531505;77;20155;-80
2022/04/17 11:40:37;;;;;;;2.65;1.98;;;;;;;22.89;22.85;101494.86;3527619;79;20911;-80
2022/04/17 11:45:29;;;;;;;3.15;1.92;;;;;;;20.29;23.43;101501.68;3526623;79;21058;-80
2022/04/17 11:50:29;;;;;;;2.30;1.95;;;;;;;18.17;24.50;101496.83;3535543;79;20960;-79
2022/04/17 11:55:27;;;;;;;2.33;2.12;;;;;;;17.55;25.20;101495.09;3474399;79;21212;-80
2022/04/17 12:00:18;;;;;;;2.22;2.02;;;;;;;17.41;27.22;101489.37;3522123;79;20983;-80
2022/04/17 12:05:13;;;;;;;3.62;2.33;;;;;;;17.96;26.37;101478.45;3491698;79;21026;-80
2022/04/17 12:10:12;;;;;;;5.30;4.10;;;;;;;17.98;26.44;101467.48;3495440;79;21623;-77
2022/04/17 12:15:06;;;;;;;1.80;1.70;;;;;;;18.13;26.33;101460.84;3549387;78;21064;-80
2022/04/17 12:19:57;;;;;;;2.62;1.87;;;;;;;17.31;26.66;101463.94;3507225;78;21149;-79
2022/04/17 12:24:48;;;;;;;2.10;1.90;;;;;;;16.95;26.58;101467.84;3549930;78;22535;-83
2022/04/17 12:29:41;;;;;;;3.70;2.12;;;;;;;17.36;26.98;101447.73;3483391;79;20970;-81
2022/04/17 12:34:32;;;;;;;3.12;2.10;;;;;;;17.81;26.79;101431.50;3500560;78;21018;-80
2022/04/17 12:39:33;;;;;;;1.90;1.80;;;;;;;17.22;26.45;101438.97;3464656;80;20987;-79
2022/04/17 12:44:34;;;;;;;2.00;1.80;;;;;;;15.99;26.51;101434.15;3506474;78;22314;-80
2022/04/17 12:49:28;;;;;;;2.22;2.00;;;;;;;16.02;26.93;101432.83;3503015;79;21022;-80
2022/04/17 12:54:20;;;;;;;2.47;1.90;;;;;;;16.07;27.20;101423.69;3483064;78;21058;-80
2022/04/17 12:59:11;;;;;;;2.27;2.08;;;;;;;15.18;27.47;101424.73;3500386;78;21512;-80
2022/04/17 13:04:10;;;;;;;2.52;2.02;;;;;;;14.70;28.02;101415.52;3485823;79;20928;-80
2022/04/17 13:09:12;;;;;;;3.00;2.15;;;;;;;15.50;28.40;101396.62;3486469;79;20995;-79
2022/04/17 13:14:03;;;;;;;1.60;1.50;;;;;;;15.52;28.08;101394.02;3478713;79;21253;-80
2022/04/17 13:18:54;;;;;;;4.17;2.12;;;;;;;14.84;27.94;101393.02;3509640;78;20959;-79
2022/04/17 13:23:46;;;;;;;2.90;1.70;;;;;;;14.82;28.81;101389.47;3541469;79;20967;-80
2022/04/17 13:28:37;;;;;;;1.80;1.57;;;;;;;14.52;29.15;101381.27;3529352;79;20933;-81
2022/04/17 13:33:28;;;;;;;2.20;2.00;;;;;;;14.95;29.32;101380.44;3527479;79;22165;-81
2022/04/17 13:38:20;;;;;;;2.65;2.05;;;;;;;14.40;28.34;101378.97;3506458;78;20991;-80
2022/04/17 13:43:11;;;;;;;1.92;1.80;;;;;;;13.91;28.98;101377.02;3472718;79;20947;-81
2022/04/17 13:48:02;;;;;;;3.20;1.90;;;;;;;13.50;29.15;101371.66;3507573;79;21018;-81
2022/04/17 13:52:54;;;;;;;3.67;1.50;;;;;;;14.52;28.67;101361.64;3498399;78;21521;-81
2022/04/17 13:57:45;;;;;;;1.75;1.65;;;;;;;15.25;27.98;101350.61;3490524;78;21173;-81
2022/04/17 14:02:36;;;;;;;1.92;1.75;;;;;;;15.40;27.74;101348.97;3496934;79;21182;-82
2022/04/17 14:07:28;;;;;;;3.67;1.70;;;;;;;15.55;27.13;101343.81;3472925;78;20876;-81
2022/04/17 14:12:19;;;;;;;3.22;2.83;;;;;;;14.64;27.56;101340.43;3491441;79;20967;-81
2022/04/17 14:17:11;;;;;;;1.77;1.60;;;;;;;13.98;28.29;101341.39;3507417;79;21039;-82
2022/04/17 14:22:04;;;;;;;5.10;2.58;;;;;;;13.65;28.75;101340.08;3463553;79;21380;-81
2022/04/17 14:26:55;;;;;;;2.47;1.57;;;;;;;14.35;28.48;101335.30;3474611;78;20979;-82
2022/04/17 14:31:46;;;;;;;1.60;1.35;;;;;;;13.88;28.86;101327.33;3473488;79;20994;-81
2022/04/17 14:36:38;;;;;;;2.17;1.35;;;;;;;13.54;28.42;101317.28;3441811;78;21082;-81
2022/04/17 14:41:29;;;;;;;1.35;1.25;;;;;;;13.65;28.63;101317.44;3472702;78;21572;-81
2022/04/17 14:46:21;;;;;;;1.40;1.30;;;;;;;13.82;28.05;101306.33;3489512;78;22022;-81
2022/04/17 14:51:13;;;;;;;2.47;1.72;;;;;;;13.28;28.43;101299.01;3462352;79;20983;-82
2022/04/17 14:56:05;;;;;;;1.82;1.45;;;;;;;12.98;28.62;101289.83;3470877;79;21193;-80
2022/04/17 15:00:56;;;;;;;2.47;1.95;;;;;;;12.85;28.94;101284.84;3469578;78;21025;-82
2022/04/17 15:05:50;;;;;;;2.02;1.82;;;;;;;13.40;29.16;101281.38;3433071;79;20987;-83
2022/04/17 15:10:42;;;;;;;1.45;1.35;;;;;;;14.17;28.82;101267.98;3470866;78;22372;-82
2022/04/17 15:15:33;;;;;;;2.67;1.65;;;;;;;14.63;28.29;101265.42;3510155;78;20986;-82
2022/04/17 15:20:24;;;;;;;2.33;1.50;;;;;;;14.62;28.44;101249.70;3508842;78;20975;-81
2022/04/17 15:25:15;;;;;;;3.00;1.60;;;;;;;14.13;28.37;101257.91;3469986;78;21026;-81
2022/04/17 15:30:07;;;;;;;1.60;1.50;;;;;;;14.27;28.73;101255.42;3475585;78;21346;-81
2022/04/17 15:34:59;;;;;;;2.40;1.62;;;;;;;14.74;29.38;101247.19;3526324;79;21492;-82
2022/04/17 15:39:50;;;;;;;13.43;11.83;;;;;;;14.87;28.21;101246.41;3477037;78;21824;-83
2022/04/17 15:49:51;;;;;;;3.20;2.33;;;;;;;14.37;28.48;101241.58;3503779;78;21521;-82
2022/04/17 15:54:42;;;;;;;3.27;2.97;;;;;;;14.01;28.55;101239.03;3499952;79;21794;-82
2022/04/17 15:59:33;;;;;;;4.00;3.70;;;;;;;13.80;29.05;101238.78;3500710;79;21499;-80
2022/04/17 16:04:26;;;;;;;3.02;2.40;;;;;;;13.49;29.08;101243.63;3501294;79;20989;-82
2022/04/17 16:09:17;;;;;;;1.75;1.65;;;;;;;13.25;29.23;101237.19;3484142;80;21501;-82
2022/04/17 16:14:08;;;;;;;3.57;1.53;;;;;;;12.96;29.09;101233.68;3467000;78;21633;-82
2022/04/17 16:19:00;;;;;;;2.72;1.70;;;;;;;12.75;29.44;101224.21;3491743;78;21746;-81
2022/04/17 16:23:52;;;;;;;2.42;1.80;;;;;;;12.44;29.59;101228.92;3508579;79;21225;-81
2022/04/17 16:28:44;;;;;;;3.50;2.20;;;;;;;12.16;30.04;101219.31;3519034;79;21501;-82
2022/04/17 16:33:38;;;;;;;1.98;1.60;;;;;;;11.87;29.84;101217.84;3451777;78;20999;-81
2022/04/17 16:38:29;;;;;;;2.62;1.90;;;;;;;11.65;30.90;101216.11;3465434;79;20923;-81
2022/04/17 16:43:20;;;;;;;2.08;1.60;;;;;;;11.41;31.37;101217.36;3502503;79;21547;-83
2022/04/17 16:48:14;;;;;;;1.75;1.40;;;;;;;11.22;31.78;101208.69;3472338;79;22042;-80
2022/04/17 16:53:05;;;;;;;3.60;1.90;;;;;;;11.02;32.53;101210.84;3471958;78;21043;-78
2022/04/17 17:03:06;;;;;;;2.72;2.00;;;;;;;10.73;33.98;101199.73;3496388;77;20966;-80
2022/04/17 17:07:57;;;;;;;2.10;1.70;;;;;;;10.63;34.78;101204.72;3516141;78;20977;-80
2022/04/17 17:12:48;;;;;;;2.10;1.15;;;;;;;10.22;37.24;101194.13;3442796;79;20880;-80
2022/04/17 17:17:39;;;;;;;3.50;1.52;;;;;;;10.22;37.24;101194.13;3506930;79;20948;-80
2022/04/17 17:22:30;;;;;;;13.78;2.58;;;;;;;10.01;37.21;101204.81;3560881;78;20948;-79
2022/04/17 17:27:21;;;;;;;4.97;2.72;;;;;;;9.72;37.64;101206.62;3454984;78;21133;-80
2022/04/17 17:32:13;;;;;;;4.92;2.10;;;;;;;9.41;38.13;101209.63;3496005;79;20945;-80
2022/04/17 17:37:04;;;;;;;9.35;2.12;;;;;;;9.13;38.94;101211.38;3517062;79;21419;-80
2022/04/17 17:41:55;;;;;;;5.75;1.77;;;;;;;8.76;39.32;101208.95;3499669;78;20963;-80
2022/04/17 17:46:46;;;;;;;4.92;2.20;;;;;;;8.14;41.53;101212.45;3478036;78;20983;-80
2022/04/17 17:51:40;;;;;;;3.77;3.13;;;;;;;8.14;41.53;101212.45;3505318;79;21693;-80
2022/04/17 17:56:30;;;;;;;3.30;2.27;;;;;;;7.86;41.67;101205.41;3469788;78;21675;-80
2022/04/17 18:01:21;;;;;;;6.93;3.03;;;;;;;7.66;41.76;101205.99;3471362;79;21810;-79
2022/04/17 18:06:12;;;;;;;4.33;2.60;;;;;;;7.52;42.04;101204.61;3513918;79;21201;-80
2022/04/17 18:16:14;;;;;;;8.65;3.52;;;;;;;7.20;42.59;101205.13;3473387;77;21002;-80
2022/04/17 18:21:12;;;;;;;6.97;3.92;;;;;;;7.06;43.20;101203.72;3482110;79;21495;-81
2022/04/17 18:26:02;;;;;;;6.30;4.75;;;;;;;6.96;43.88;101209.38;3468913;79;21895;-80
2022/04/17 18:30:53;;;;;;;7.55;4.12;;;;;;;6.90;43.85;101216.87;3489752;78;21449;-80
2022/04/17 18:35:44;;;;;;;8.90;5.10;;;;;;;6.73;44.79;101218.80;3511956;79;20966;-81
2022/04/17 18:40:36;;;;;;;12.68;8.98;;;;;;;6.54;45.46;101214.56;3488251;79;22288;-80
2022/04/17 18:45:26;;;;;;;12.25;6.15;;;;;;;6.36;45.34;101223.30;3489108;77;21490;-80
2022/04/17 18:50:18;;;;;;;9.35;6.20;;;;;;;6.19;45.85;101217.44;3501096;79;21805;-80
2022/04/17 18:55:09;;;;;;;9.80;4.10;;;;;;;6.09;46.35;101219.14;3477411;80;22061;-80
2022/04/17 19:00:02;;;;;;;10.43;4.78;;;;;;;5.94;46.66;101219.33;3472504;78;20982;-80
2022/04/17 19:04:53;;;;;;;8.85;4.22;;;;;;;5.77;47.15;101211.25;3485930;78;20928;-80
2022/04/17 19:09:44;;;;;;;16.37;4.78;;;;;;;5.63;47.28;101216.66;3461301;79;21777;-80
2022/04/17 19:14:35;;;;;;;7.37;4.00;;;;;;;5.48;47.84;101222.44;3507770;77;22565;-80
2022/04/17 19:19:26;;;;;;;8.20;4.10;;;;;;;5.26;48.48;101212.42;3502559;79;21156;-80
2022/04/17 19:24:17;;;;;;;7.47;4.15;;;;;;;5.26;48.48;101212.42;3567184;78;21659;-80
2022/04/17 19:29:08;;;;;;;6.53;4.33;;;;;;;5.06;48.66;101211.50;3530986;79;20967;-80
2022/04/17 19:39:08;;;;;;;10.53;4.60;;;;;;;4.78;49.54;101206.72;3486439;79;21254;-80
2022/04/17 19:43:59;;;;;;;5.22;4.05;;;;;;;4.66;50.08;101198.39;3477124;77;20955;-80
2022/04/17 19:48:50;;;;;;;7.12;5.40;;;;;;;4.55;50.31;101199.16;3511195;77;21129;-80
2022/04/17 19:53:43;;;;;;;7.60;6.22;;;;;;;4.49;50.64;101203.60;3498762;78;21677;-80
2022/04/17 19:58:34;;;;;;;9.93;6.55;;;;;;;4.50;50.82;101195.46;3530360;77;21003;-80
2022/04/17 20:03:26;;;;;;;10.72;7.60;;;;;;;4.42;51.06;101195.48;3505457;79;21016;-80
2022/04/17 20:08:18;;;;;;;12.23;7.60;;;;;;;4.36;51.39;101194.77;3527848;79;21007;-80
2022/04/17 20:13:09;;;;;;;13.13;8.95;;;;;;;4.30;51.56;101191.50;3458524;78;20964;-80
2022/04/17 20:18:01;;;;;;;13.08;8.75;;;;;;;4.20;51.82;101185.02;3506806;78;21015;-80
2022/04/17 20:22:52;;;;;;;12.55;8.43;;;;;;;4.16;52.39;101185.65;3475689;79;21055;-80
2022/04/17 20:27:43;;;;;;;15.30;9.80;;;;;;;4.13;52.52;101182.95;3450409;78;21502;-80
2022/04/17 20:32:34;;;;;;;15.65;10.82;;;;;;;4.13;52.86;101176.51;3485079;78;21666;-80
2022/04/17 20:37:25;;;;;;;16.27;10.70;;;;;;;4.11;52.96;101177.22;3516675;77;21030;-80
2022/04/17 20:42:17;;;;;;;18.80;11.63;;;;;;;4.10;53.17;101176.34;3498475;79;20889;-79
2022/04/17 20:52:18;;;;;;;15.32;10.85;;;;;;;4.05;53.50;101170.08;3554103;79;22332;-79
2022/04/17 20:57:09;;;;;;;15.53;9.55;;;;;;;4.02;53.88;101168.63;3467824;79;21023;-80
2022/04/17 21:02:00;;;;;;;12.75;8.45;;;;;;;3.96;53.90;101168.33;3523618;78;21054;-80
2022/04/17 21:06:51;;;;;;;18.32;10.30;;;;;;;3.86;54.58;101154.09;3526257;78;20986;-83
2022/04/17 21:11:42;;;;;;;14.90;10.05;;;;;;;3.86;54.58;101154.09;3541740;79;21368;-83
2022/04/17 21:16:33;;;;;;;14.80;10.10;;;;;;;3.91;54.86;101156.50;3548799;79;21172;-82
2022/04/17 21:21:24;;;;;;;17.57;10.03;;;;;;;3.93;54.66;101147.58;3535204;78;21020;-83
2022/04/17 21:26:17;;;;;;;17.92;9.68;;;;;;;3.93;54.99;101147.58;3434844;78;20927;-82
2022/04/17 21:31:08;;;;;;;12.25;8.28;;;;;;;3.92;55.21;101143.27;3494826;79;21002;-83
2022/04/17 21:35:59;;;;;;;12.45;8.28;;;;;;;3.87;55.39;101140.86;3504822;78;21208;-83
2022/04/17 21:40:50;;;;;;;14.20;8.30;;;;;;;3.87;55.39;101140.86;3538520;79;23881;-82
2022/04/17 21:45:41;;;;;;;14.43;9.35;;;;;;;3.79;55.66;101141.73;3476780;79;21559;-83
2022/04/17 21:50:32;;;;;;;17.30;10.30;;;;;;;3.71;55.85;101134.92;3527366;78;20987;-82
2022/04/17 21:55:23;;;;;;;15.00;9.08;;;;;;;3.65;55.88;101133.70;3483709;79;20899;-82
2022/04/17 22:05:47;;;;;;;21.12;13.08;;;;;;;3.49;56.39;101141.02;3554068;78;21215;-83
2022/04/17 22:10:38;;;;;;;18.48;11.30;;;;;;;3.38;56.60;101133.66;3534405;78;20963;-82
2022/04/17 22:15:30;;;;;;;24.20;12.65;;;;;;;3.32;56.86;101125.61;3472400;78;22270;-83
2022/04/17 22:20:21;;;;;;;23.73;14.58;;;;;;;3.25;57.02;101123.52;3499695;78;20964;-83
2022/04/17 22:25:12;;;;;;;24.75;12.25;;;;;;;3.19;57.12;101115.49;3524967;78;21023;-83
2022/04/17 22:30:07;;;;;;;29.18;14.90;;;;;;;3.10;57.10;101106.89;3524679;79;21926;-83
2022/04/17 22:35:01;;;;;;;25.48;14.40;;;;;;;3.09;57.46;101119.24;3528285;79;20959;-83
2022/04/17 22:39:50;;;;;;;31.25;16.23;;;;;;;3.05;57.55;101110.48;3526654;79;20971;-83
2022/04/17 22:44:41;;;;;;;29.85;15.90;;;;;;;3.02;57.53;101107.78;3478908;79;21452;-83
2022/04/17 22:49:32;;;;;;;33.13;17.60;;;;;;;3.05;57.99;101111.77;3518947;78;21150;-82
2022/04/17 22:54:23;;;;;;;31.45;17.77;;;;;;;3.12;58.17;101109.55;3457445;78;21387;-82
2022/04/17 22:59:14;;;;;;;34.43;17.10;;;;;;;3.14;58.39;101098.95;3533493;77;22802;-83
2022/04/17 23:04:05;;;;;;;31.95;17.42;;;;;;;3.17;58.42;101091.41;3531615;79;21253;-82
2022/04/17 23:08:56;;;;;;;36.13;18.42;;;;;;;3.14;58.35;101094.68;3526091;79;20988;-82
2022/04/17 23:13:48;;;;;;;34.20;17.60;;;;;;;3.10;58.46;101091.89;3503907;79;20899;-83
2022/04/17 23:18:39;;;;;;;31.93;19.30;;;;;;;3.04;58.67;101097.17;3449757;80;21952;-83
2022/04/17 23:23:30;;;;;;;32.40;17.52;;;;;;;3.00;58.69;101089.21;3501031;77;20968;-83
2022/04/17 23:28:21;;;;;;;31.30;18.10;;;;;;;2.94;58.72;101084.63;3525120;79;21023;-82
2022/04/17 23:33:13;;;;;;;33.13;18.90;;;;;;;2.92;58.56;101082.80;3501412;79;21182;-83
2022/04/17 23:38:04;;;;;;;30.75;17.27;;;;;;;2.85;58.63;101088.00;3458605;79;21124;-83